createdAt,value
2022-08-25T00:03:35.985Z,54.40
2022-08-25T00:07:41.707Z,44.20
2022-08-25T00:11:45.618Z,34.70
2022-08-25T00:15:47.958Z,44.30
2022-08-25T00:19:50.307Z,38.70
2022-08-25T00:23:53.342Z,48.20
2022-08-25T00:27:55.571Z,26.30
2022-08-25T00:31:58.967Z,56.20
2022-08-25T00:36:01.087Z,38.00
2022-08-25T00:40:06.360Z,36.90
2022-08-25T00:44:12.097Z,46.00
2022-08-25T00:48:14.434Z,33.10
2022-08-25T00:52:23.216Z,27.40
2022-08-25T00:56:26.981Z,36.80
2022-08-25T01:00:37.130Z,34.80
2022-08-25T01:04:39.275Z,24.50
2022-08-25T01:08:41.762Z,26.60
2022-08-25T01:12:44.289Z,34.20
2022-08-25T01:16:50.957Z,40.60
2022-08-25T01:20:59.761Z,30.60
2022-08-25T01:25:08.334Z,34.50
2022-08-25T01:29:26.728Z,32.00
2022-08-25T01:33:54.223Z,32.10
2022-08-25T01:37:56.430Z,43.20
2022-08-25T01:42:10.996Z,37.20
2022-08-25T01:46:33.069Z,32.60
2022-08-25T01:50:35.320Z,38.80
2022-08-25T01:54:37.558Z,45.60
2022-08-25T01:58:43.250Z,27.40
2022-08-25T02:02:45.869Z,37.60
2022-08-25T02:06:49.466Z,25.30
2022-08-25T02:10:55.361Z,41.20
2022-08-25T02:14:59.276Z,50.30
2022-08-25T02:19:01.643Z,32.00
2022-08-25T02:23:04.606Z,30.50
2022-08-25T02:27:06.748Z,41.50
2022-08-25T02:31:09.538Z,35.70
2022-08-25T02:35:12.888Z,38.80
2022-08-25T02:39:15.027Z,24.60
2022-08-25T02:43:17.093Z,29.30
2022-08-25T02:47:20.230Z,50.40
2022-08-25T02:51:29.920Z,53.80
2022-08-25T02:55:34.518Z,42.60
2022-08-25T02:59:38.813Z,27.00
2022-08-25T03:03:43.965Z,33.30
2022-08-25T03:07:46.300Z,45.70
2022-08-25T03:11:49.281Z,33.10
2022-08-25T03:15:52.613Z,34.30
2022-08-25T03:19:54.851Z,43.80
2022-08-25T03:23:56.999Z,48.00
2022-08-25T03:27:59.304Z,40.80
2022-08-25T03:32:01.922Z,61.30
2022-08-25T03:36:05.557Z,44.70
2022-08-25T03:40:15.377Z,41.30
2022-08-25T03:44:21.340Z,42.40
2022-08-25T03:48:23.422Z,56.50
2022-08-25T03:52:26.407Z,47.80
2022-08-25T03:56:28.629Z,45.50
2022-08-25T04:00:30.883Z,53.70
2022-08-25T04:04:33.713Z,45.00
2022-08-25T04:08:36.468Z,51.50
2022-08-25T04:12:38.773Z,35.20
2022-08-25T04:16:41.113Z,44.20
2022-08-25T04:20:46.553Z,46.20
2022-08-25T04:24:49.212Z,43.80
2022-08-25T04:28:52.620Z,47.90
2022-08-25T04:32:54.842Z,36.70
2022-08-25T04:37:01.402Z,38.10
2022-08-25T04:41:06.439Z,45.10
2022-08-25T04:45:09.639Z,36.30
2022-08-25T04:49:12.251Z,39.20
2022-08-25T04:53:21.233Z,36.20
2022-08-25T04:57:23.442Z,39.00
2022-08-25T05:01:26.126Z,26.90
2022-08-25T05:05:28.350Z,34.70
2022-08-25T05:09:32.442Z,32.40
2022-08-25T05:13:36.425Z,37.10
2022-08-25T05:17:39.975Z,30.20
2022-08-25T05:21:42.876Z,51.00
2022-08-25T05:25:45.123Z,24.80
2022-08-25T05:29:47.319Z,29.70
2022-08-25T05:33:50.706Z,44.10
2022-08-25T05:37:52.877Z,28.90
2022-08-25T05:41:55.267Z,29.40
2022-08-25T05:45:58.817Z,24.70
2022-08-25T05:50:02.440Z,23.80
2022-08-25T05:54:05.041Z,32.20
2022-08-25T05:58:07.371Z,22.00
2022-08-25T06:02:30.715Z,28.60
2022-08-25T06:06:32.931Z,31.60
2022-08-25T06:10:37.794Z,29.70
2022-08-25T06:14:46.201Z,29.30
2022-08-25T06:18:48.365Z,21.80
2022-08-25T06:22:50.925Z,34.00
2022-08-25T06:26:55.460Z,32.40
2022-08-25T06:30:59.848Z,28.40
2022-08-25T06:35:15.985Z,16.40
2022-08-25T06:39:18.096Z,20.20
2022-08-25T06:43:22.798Z,26.00
2022-08-25T06:47:24.920Z,28.00
2022-08-25T06:51:27.190Z,25.40
2022-08-25T06:55:29.170Z,24.80
2022-08-25T06:59:32.336Z,21.60
2022-08-25T07:03:34.664Z,18.90
2022-08-25T07:07:43.729Z,31.80
2022-08-25T07:11:46.552Z,22.00
2022-08-25T07:15:59.836Z,32.90
2022-08-25T07:20:02.107Z,19.70
2022-08-25T07:24:26.501Z,35.40
2022-08-25T07:28:28.592Z,23.70
2022-08-25T07:32:30.672Z,27.90
2022-08-25T07:36:33.190Z,25.50
2022-08-25T07:40:37.728Z,15.90
2022-08-25T07:44:44.857Z,28.00
2022-08-25T07:48:53.210Z,22.20
2022-08-25T07:52:57.546Z,14.30
2022-08-25T07:56:59.664Z,28.40
2022-08-25T08:01:02.691Z,12.60
2022-08-25T08:05:05.727Z,28.20
2022-08-25T08:09:13.172Z,20.50
2022-08-25T08:13:18.425Z,16.70
2022-08-25T08:17:21.888Z,35.20
2022-08-25T08:21:30.634Z,10.80
2022-08-25T08:25:32.832Z,26.30
2022-08-25T08:29:36.454Z,18.80
2022-08-25T08:33:40.818Z,20.80
2022-08-25T08:37:43.986Z,26.60
2022-08-25T08:42:18.490Z,32.70
2022-08-25T08:46:23.163Z,15.20
2022-08-25T08:50:42.163Z,17.70
2022-08-25T08:54:50.366Z,31.10
2022-08-25T08:59:00.540Z,21.90
2022-08-25T09:03:27.702Z,9.40
2022-08-25T09:07:42.083Z,27.40
2022-08-25T09:11:47.478Z,13.70
2022-08-25T09:16:23.320Z,9.00
2022-08-25T09:21:21.615Z,12.00
2022-08-25T09:30:05.383Z,15.70
2022-08-25T09:34:19.863Z,21.80
2022-08-25T09:38:23.294Z,9.80
2022-08-25T09:42:50.350Z,11.00
2022-08-25T09:47:15.066Z,17.70
2022-08-25T09:51:42.844Z,13.30
2022-08-25T09:56:00.203Z,12.00
2022-08-25T10:00:33.742Z,7.10
2022-08-25T10:04:38.658Z,19.30
2022-08-25T10:08:45.157Z,14.40
2022-08-25T10:12:51.085Z,11.20
2022-08-25T10:17:13.590Z,9.50
2022-08-25T10:21:18.594Z,10.20
2022-08-25T10:25:28.456Z,7.00
2022-08-25T10:29:52.704Z,10.50
2022-08-25T10:34:20.956Z,13.30
2022-08-25T10:38:36.615Z,7.60
2022-08-25T10:43:19.562Z,8.30
2022-08-25T10:47:57.157Z,8.40
2022-08-25T10:52:10.184Z,7.20
2022-08-25T10:56:40.130Z,7.40
2022-08-25T11:01:03.671Z,11.40
2022-08-25T11:05:45.098Z,14.10
2022-08-25T11:09:52.693Z,9.60
2022-08-25T11:14:01.181Z,10.20
2022-08-25T11:18:14.704Z,8.50
2022-08-25T11:22:27.039Z,3.90
2022-08-25T11:26:36.944Z,9.60
2022-08-25T11:30:40.805Z,11.10
2022-08-25T11:34:43.849Z,10.30
2022-08-25T11:38:52.419Z,8.30
2022-08-25T11:43:46.273Z,5.90
2022-08-25T11:48:15.053Z,11.20
2022-08-25T11:52:35.707Z,7.70
2022-08-25T11:56:41.400Z,16.50
2022-08-25T12:00:44.165Z,9.90
2022-08-25T12:04:46.364Z,9.10
2022-08-25T12:09:12.815Z,5.70
2022-08-25T12:13:41.565Z,10.60
2022-08-25T12:17:44.182Z,6.90
2022-08-25T12:21:46.405Z,16.60
2022-08-25T12:25:53.693Z,10.30
2022-08-25T12:34:30.685Z,10.50
2022-08-25T12:38:46.284Z,10.10
2022-08-25T12:43:06.347Z,3.40
2022-08-25T12:47:24.304Z,4.40
2022-08-25T12:51:32.557Z,6.90
2022-08-25T12:55:36.021Z,9.60
2022-08-25T12:59:45.763Z,8.10
2022-08-25T13:04:00.698Z,8.80
2022-08-25T13:08:21.861Z,4.20
2022-08-25T13:12:32.216Z,10.10
2022-08-25T13:16:34.775Z,8.20
2022-08-25T13:20:36.845Z,9.60
2022-08-25T13:24:44.494Z,10.00
2022-08-25T13:28:54.778Z,8.20
2022-08-25T13:32:57.946Z,10.90
2022-08-25T13:37:27.250Z,18.60
2022-08-25T13:41:33.887Z,4.70
2022-08-25T13:45:46.359Z,9.00
2022-08-25T13:49:48.443Z,6.80
2022-08-25T13:54:00.304Z,15.60
2022-08-25T13:58:03.707Z,9.60
2022-08-25T14:02:07.819Z,10.30
2022-08-25T14:06:17.427Z,10.00
2022-08-25T14:10:34.741Z,9.20
2022-08-25T14:14:40.666Z,12.30
2022-08-25T14:18:51.468Z,7.70
2022-08-25T14:22:58.319Z,5.70
2022-08-25T14:27:04.042Z,10.10
2022-08-25T14:31:09.164Z,7.50
2022-08-25T14:35:11.719Z,18.60
2022-08-25T14:39:19.660Z,8.20
2022-08-25T14:43:31.289Z,7.20
2022-08-25T14:47:36.729Z,9.50
2022-08-25T14:51:43.406Z,13.10
2022-08-25T14:55:45.777Z,9.00
2022-08-25T14:59:48.156Z,6.70
2022-08-25T15:03:55.357Z,11.50
2022-08-25T15:08:16.373Z,7.30
2022-08-25T15:12:37.398Z,7.20
2022-08-25T15:16:51.101Z,9.40
2022-08-25T15:20:53.440Z,11.60
2022-08-25T15:24:55.610Z,18.30
2022-08-25T15:28:57.727Z,13.40
2022-08-25T15:32:59.870Z,14.50
2022-08-25T15:37:11.978Z,10.70
2022-08-25T15:41:14.093Z,6.70
2022-08-25T15:45:16.329Z,6.70
2022-08-25T15:49:23.494Z,13.60
2022-08-25T15:53:29.382Z,9.10
2022-08-25T15:57:31.622Z,6.80
2022-08-25T16:01:37.213Z,17.60
2022-08-25T16:05:47.885Z,15.40
2022-08-25T16:09:51.138Z,8.10
2022-08-25T16:13:54.446Z,14.90
2022-08-25T16:18:00.079Z,13.30
2022-08-25T16:22:03.027Z,17.40
2022-08-25T16:26:10.649Z,13.10
2022-08-25T16:30:17.604Z,10.30
2022-08-25T16:34:20.191Z,12.50
2022-08-25T16:38:22.478Z,23.10
2022-08-25T16:42:24.684Z,8.70
2022-08-25T16:46:29.148Z,9.10
2022-08-25T16:50:32.721Z,11.10
2022-08-25T16:54:58.332Z,13.50
2022-08-25T16:59:02.556Z,12.80
2022-08-25T17:03:06.093Z,10.00
2022-08-25T17:07:08.470Z,9.60
2022-08-25T17:11:13.770Z,15.70
2022-08-25T17:15:21.966Z,10.40
2022-08-25T17:19:27.325Z,8.50
2022-08-25T17:23:30.827Z,13.20
2022-08-25T17:27:33.312Z,19.60
2022-08-25T17:31:39.356Z,10.00
2022-08-25T17:35:44.058Z,12.40
2022-08-25T17:39:46.251Z,15.30
2022-08-25T17:43:52.478Z,18.50
2022-08-25T17:47:55.920Z,10.60
2022-08-25T17:51:58.973Z,15.50
2022-08-25T17:56:06.771Z,12.50
2022-08-25T18:00:11.699Z,24.40
2022-08-25T18:04:17.937Z,16.70
2022-08-25T18:08:21.979Z,20.00
2022-08-25T18:12:35.858Z,25.90
2022-08-25T18:16:39.082Z,8.30
2022-08-25T18:20:45.622Z,20.30
2022-08-25T18:24:47.855Z,13.00
2022-08-25T18:28:49.974Z,10.40
2022-08-25T18:32:52.169Z,23.10
2022-08-25T18:36:54.486Z,16.40
2022-08-25T18:41:02.557Z,8.70
2022-08-25T18:45:06.473Z,18.90
2022-08-25T18:49:08.762Z,12.10
2022-08-25T18:53:12.130Z,13.70
2022-08-25T18:57:14.303Z,10.20
2022-08-25T19:01:18.536Z,7.70
2022-08-25T19:05:25.049Z,27.00
2022-08-25T19:09:27.644Z,15.60
2022-08-25T19:13:30.657Z,19.30
2022-08-25T19:17:37.457Z,15.00
2022-08-25T19:21:41.609Z,13.40
2022-08-25T19:25:43.754Z,17.60
2022-08-25T19:29:45.876Z,20.50
2022-08-25T19:33:50.530Z,13.40
2022-08-25T19:37:54.532Z,15.80
2022-08-25T19:41:56.818Z,14.20
2022-08-25T19:45:59.585Z,18.70
2022-08-25T19:50:01.770Z,18.30
2022-08-25T19:54:05.222Z,17.80
2022-08-25T19:58:11.072Z,10.80
2022-08-25T20:02:19.899Z,19.10
2022-08-25T20:06:22.209Z,19.50
2022-08-25T20:10:27.595Z,19.70
2022-08-25T20:14:32.493Z,17.90
2022-08-25T20:18:34.646Z,11.10
2022-08-25T20:22:37.928Z,18.60
2022-08-25T20:26:40.836Z,19.00
2022-08-25T20:31:13.483Z,12.60
2022-08-25T20:35:17.595Z,20.30
2022-08-25T20:39:21.156Z,15.80
2022-08-25T20:43:23.318Z,12.80
2022-08-25T20:47:25.607Z,14.70
2022-08-25T20:51:28.427Z,15.10
2022-08-25T20:55:31.773Z,20.50
2022-08-25T20:59:42.451Z,16.80
2022-08-25T21:03:45.384Z,20.30
2022-08-25T21:07:50.086Z,13.10
2022-08-25T21:11:54.462Z,16.40
2022-08-25T21:15:56.528Z,21.50
2022-08-25T21:19:58.694Z,15.40
2022-08-25T21:24:00.951Z,20.90
2022-08-25T21:28:03.242Z,17.00
2022-08-25T21:32:05.531Z,15.70
2022-08-25T21:36:09.763Z,17.70
2022-08-25T21:40:12.369Z,22.50
2022-08-25T21:44:14.574Z,18.70
2022-08-25T21:48:16.775Z,24.20
2022-08-25T21:52:18.976Z,25.30
2022-08-25T21:56:22.209Z,20.70
2022-08-25T22:00:28.725Z,16.00
2022-08-25T22:04:31.944Z,16.70
2022-08-25T22:08:35.885Z,19.90
2022-08-25T22:12:38.967Z,14.30
2022-08-25T22:16:42.214Z,17.70
2022-08-25T22:20:44.466Z,16.20
2022-08-25T22:24:46.612Z,26.20
2022-08-25T22:28:48.870Z,17.60
2022-08-25T22:32:52.529Z,25.70
2022-08-25T22:36:54.565Z,23.40
2022-08-25T22:41:02.284Z,34.50
2022-08-25T22:45:06.718Z,18.00
2022-08-25T22:49:08.911Z,19.60
2022-08-25T22:53:11.317Z,17.80
2022-08-25T22:57:13.398Z,12.60
2022-08-25T23:01:18.481Z,12.50
2022-08-25T23:05:20.781Z,13.80
2022-08-25T23:09:23.220Z,22.80
2022-08-25T23:13:34.108Z,21.70
2022-08-25T23:17:37.334Z,14.40
2022-08-25T23:21:58.570Z,16.10
2022-08-25T23:26:00.768Z,16.20
2022-08-25T23:30:03.625Z,21.70
2022-08-25T23:34:06.429Z,15.10
2022-08-25T23:38:10.808Z,16.30
2022-08-25T23:42:12.958Z,25.40
2022-08-25T23:46:17.739Z,18.40
2022-08-25T23:50:19.839Z,9.60
2022-08-25T23:54:22.294Z,12.60
2022-08-25T23:58:33.342Z,22.50
